sensor_id;sensor_type;location;lat;lon;timestamp;pressure;altitude;pressure_sealevel;temperature;humidity
21011;BME280;10663;42.714;23.274;2023-05-03T00:01:12;95057.81;;;17.24;31.07
21011;BME280;10663;42.714;23.274;2023-05-03T00:02:43;95041.34;;;17.31;31.92
21011;BME280;10663;42.714;23.274;2023-05-03T00:04:15;95053.28;;;17.11;31.61
21011;BME280;10663;42.714;23.274;2023-05-03T00:05:47;95054.66;;;17.08;31.35
21011;BME280;10663;42.714;23.274;2023-05-03T00:07:19;95049.59;;;16.93;31.89
21011;BME280;10663;42.714;23.274;2023-05-03T00:08:51;95049.44;;;16.84;31.81
21011;BME280;10663;42.714;23.274;2023-05-03T00:10:23;95050.13;;;16.63;31.94
21011;BME280;10663;42.714;23.274;2023-05-03T00:11:53;95051.03;;;16.86;31.75
21011;BME280;10663;42.714;23.274;2023-05-03T00:13:24;95055.22;;;17.05;30.93
21011;BME280;10663;42.714;23.274;2023-05-03T00:14:55;95055.72;;;16.94;32.05
21011;BME280;10663;42.714;23.274;2023-05-03T00:16:26;95060.94;;;16.85;31.85
21011;BME280;10663;42.714;23.274;2023-05-03T00:17:57;95065.91;;;16.78;32.10
21011;BME280;10663;42.714;23.274;2023-05-03T00:19:28;95054.91;;;16.79;31.73
21011;BME280;10663;42.714;23.274;2023-05-03T00:21:03;95049.59;;;16.93;31.60
21011;BME280;10663;42.714;23.274;2023-05-03T00:22:34;95050.75;;;16.87;31.62
21011;BME280;10663;42.714;23.274;2023-05-03T00:24:06;95055.38;;;16.68;31.86
21011;BME280;10663;42.714;23.274;2023-05-03T00:25:37;95059.47;;;16.60;32.08
21011;BME280;10663;42.714;23.274;2023-05-03T00:27:08;95055.81;;;16.75;32.08
21011;BME280;10663;42.714;23.274;2023-05-03T00:28:39;95060.72;;;16.49;32.70
21011;BME280;10663;42.714;23.274;2023-05-03T00:30:10;95062.41;;;16.64;32.79
21011;BME280;10663;42.714;23.274;2023-05-03T00:31:44;95065.72;;;16.56;33.41
21011;BME280;10663;42.714;23.274;2023-05-03T00:33:16;95063.34;;;16.54;33.05
21011;BME280;10663;42.714;23.274;2023-05-03T00:34:54;95067.69;;;16.82;32.69
21011;BME280;10663;42.714;23.274;2023-05-03T00:36:26;95068.97;;;16.71;33.02
21011;BME280;10663;42.714;23.274;2023-05-03T00:37:57;95064.13;;;16.55;33.06
21011;BME280;10663;42.714;23.274;2023-05-03T00:39:31;95062.69;;;16.62;32.95
21011;BME280;10663;42.714;23.274;2023-05-03T00:41:02;95060.84;;;16.58;33.13
21011;BME280;10663;42.714;23.274;2023-05-03T00:42:35;95068.97;;;16.53;33.26
21011;BME280;10663;42.714;23.274;2023-05-03T00:44:06;95069.84;;;16.48;nan
21011;BME280;10663;42.714;23.274;2023-05-03T00:45:37;95061.28;;;16.32;33.71
21011;BME280;10663;42.714;23.274;2023-05-03T00:47:08;95069.09;;;16.29;33.87
21011;BME280;10663;42.714;23.274;2023-05-03T00:48:39;95073.31;;;16.48;33.49
21011;BME280;10663;42.714;23.274;2023-05-03T00:50:10;95067.66;;;16.50;33.36
21011;BME280;10663;42.714;23.274;2023-05-03T00:51:42;95068.22;;;16.33;33.60
21011;BME280;10663;42.714;23.274;2023-05-03T00:53:13;95070.47;;;16.26;34.08
21011;BME280;10663;42.714;23.274;2023-05-03T00:54:44;95069.50;;;16.36;33.78
21011;BME280;10663;42.714;23.274;2023-05-03T00:56:18;95056.09;;;16.03;34.32
21011;BME280;10663;42.714;23.274;2023-05-03T00:57:55;95063.69;;;16.15;34.01
21011;BME280;10663;42.714;23.274;2023-05-03T00:59:27;95053.38;;;16.08;34.11
21011;BME280;10663;42.714;23.274;2023-05-03T01:00:59;95056.88;;;16.23;33.79
21011;BME280;10663;42.714;23.274;2023-05-03T01:02:30;95045.84;;;16.29;33.66
21011;BME280;10663;42.714;23.274;2023-05-03T01:04:01;95059.09;;;16.34;33.38
21011;BME280;10663;42.714;23.274;2023-05-03T01:09:54;95048.44;;;15.97;33.92
21011;BME280;10663;42.714;23.274;2023-05-03T01:11:50;95042.69;;;16.08;33.76
21011;BME280;10663;42.714;23.274;2023-05-03T01:17:01;95052.63;;;16.03;33.87
21011;BME280;10663;42.714;23.274;2023-05-03T01:18:36;95051.91;;;16.16;33.66
21011;BME280;10663;42.714;23.274;2023-05-03T01:20:12;95035.81;;;16.02;33.94
21011;BME280;10663;42.714;23.274;2023-05-03T01:21:46;95044.59;;;16.22;33.67
21011;BME280;10663;42.714;23.274;2023-05-03T01:23:28;95036.66;;;16.35;33.37
21011;BME280;10663;42.714;23.274;2023-05-03T01:25:07;95036.91;;;16.20;33.48
21011;BME280;10663;42.714;23.274;2023-05-03T01:26:39;95028.44;;;15.94;33.85
21011;BME280;10663;42.714;23.274;2023-05-03T01:28:10;95034.25;;;15.83;34.07
21011;BME280;10663;42.714;23.274;2023-05-03T01:29:40;95028.44;;;15.76;34.30
21011;BME280;10663;42.714;23.274;2023-05-03T01:31:16;95029.84;;;15.73;34.29
21011;BME280;10663;42.714;23.274;2023-05-03T01:32:55;95038.50;;;15.65;34.56
21011;BME280;10663;42.714;23.274;2023-05-03T01:36:25;95031.25;;;15.84;34.42
21011;BME280;10663;42.714;23.274;2023-05-03T01:38:01;95033.38;;;15.87;34.24
21011;BME280;10663;42.714;23.274;2023-05-03T01:41:23;95035.03;;;15.83;34.66
21011;BME280;10663;42.714;23.274;2023-05-03T01:42:54;95048.41;;;15.83;33.88
21011;BME280;10663;42.714;23.274;2023-05-03T01:44:26;95035.50;;;15.66;34.46
21011;BME280;10663;42.714;23.274;2023-05-03T01:45:58;95042.31;;;15.78;34.13
21011;BME280;10663;42.714;23.274;2023-05-03T01:47:30;95029.75;;;15.78;33.94
21011;BME280;10663;42.714;23.274;2023-05-03T01:49:01;95028.16;;;15.77;34.38
21011;BME280;10663;42.714;23.274;2023-05-03T01:50:33;95030.13;;;15.71;34.40
21011;BME280;10663;42.714;23.274;2023-05-03T01:52:06;95041.38;;;15.68;34.12
21011;BME280;10663;42.714;23.274;2023-05-03T01:53:37;95040.22;;;15.56;34.77
21011;BME280;10663;42.714;23.274;2023-05-03T01:55:08;95032.84;;;15.66;34.38
21011;BME280;10663;42.714;23.274;2023-05-03T01:56:39;95039.34;;;15.60;34.11
21011;BME280;10663;42.714;23.274;2023-05-03T01:58:10;95038.66;;;15.74;34.27
21011;BME280;10663;42.714;23.274;2023-05-03T01:59:42;95035.81;;;15.41;34.51
21011;BME280;10663;42.714;23.274;2023-05-03T02:01:13;95026.38;;;15.49;34.37
21011;BME280;10663;42.714;23.274;2023-05-03T02:02:44;95024.00;;;15.28;35.00
21011;BME280;10663;42.714;23.274;2023-05-03T02:04:16;95027.31;;;15.63;34.89
21011;BME280;10663;42.714;23.274;2023-05-03T02:05:47;95025.78;;;15.76;34.31
21011;BME280;10663;42.714;23.274;2023-05-03T02:07:18;95016.13;;;15.80;34.50
21011;BME280;10663;42.714;23.274;2023-05-03T02:08:49;95019.22;;;15.87;34.19
21011;BME280;10663;42.714;23.274;2023-05-03T02:10:20;95024.63;;;16.00;34.23
21011;BME280;10663;42.714;23.274;2023-05-03T02:11:51;95017.41;;;16.01;33.81
21011;BME280;10663;42.714;23.274;2023-05-03T02:13:22;95010.13;;;15.88;34.52
21011;BME280;10663;42.714;23.274;2023-05-03T02:14:53;95010.63;;;15.71;34.35
21011;BME280;10663;42.714;23.274;2023-05-03T02:16:24;94994.97;;;16.02;34.45
21011;BME280;10663;42.714;23.274;2023-05-03T02:17:55;95008.63;;;15.82;34.39
21011;BME280;10663;42.714;23.274;2023-05-03T02:19:28;95003.69;;;15.89;34.96
21011;BME280;10663;42.714;23.274;2023-05-03T02:20:59;95004.13;;;15.77;34.49
21011;BME280;10663;42.714;23.274;2023-05-03T02:22:31;95002.47;;;15.81;34.93
21011;BME280;10663;42.714;23.274;2023-05-03T02:24:02;94992.59;;;15.63;35.12
21011;BME280;10663;42.714;23.274;2023-05-03T02:25:33;94993.75;;;15.76;35.30
21011;BME280;10663;42.714;23.274;2023-05-03T02:27:04;94992.75;;;15.71;35.27
21011;BME280;10663;42.714;23.274;2023-05-03T02:28:35;95000.75;;;15.71;34.75
21011;BME280;10663;42.714;23.274;2023-05-03T02:30:07;94999.53;;;15.64;34.98
21011;BME280;10663;42.714;23.274;2023-05-03T02:31:43;95003.72;;;15.70;35.50
21011;BME280;10663;42.714;23.274;2023-05-03T02:33:14;95003.56;;;15.61;35.00
21011;BME280;10663;42.714;23.274;2023-05-03T02:34:47;95000.97;;;15.56;35.40
21011;BME280;10663;42.714;23.274;2023-05-03T02:36:22;95001.50;;;15.53;35.45
21011;BME280;10663;42.714;23.274;2023-05-03T02:37:53;95003.13;;;15.54;35.62
21011;BME280;10663;42.714;23.274;2023-05-03T02:39:24;95000.91;;;15.61;35.32
21011;BME280;10663;42.714;23.274;2023-05-03T02:40:55;95003.06;;;15.59;35.76
21011;BME280;10663;42.714;23.274;2023-05-03T02:42:26;95005.16;;;15.62;35.51
21011;BME280;10663;42.714;23.274;2023-05-03T02:43:58;95011.88;;;15.79;35.52
21011;BME280;10663;42.714;23.274;2023-05-03T02:45:30;95017.06;;;15.89;35.09
21011;BME280;10663;42.714;23.274;2023-05-03T02:47:01;95024.41;;;15.78;35.12
21011;BME280;10663;42.714;23.274;2023-05-03T02:48:32;95022.31;;;15.94;35.45
21011;BME280;10663;42.714;23.274;2023-05-03T02:50:03;95020.00;;;15.87;35.29
21011;BME280;10663;42.714;23.274;2023-05-03T02:51:37;95041.47;;;16.01;34.64
21011;BME280;10663;42.714;23.274;2023-05-03T02:53:08;95026.84;;;15.93;34.47
21011;BME280;10663;42.714;23.274;2023-05-03T02:54:39;95018.28;;;15.78;35.03
21011;BME280;10663;42.714;23.274;2023-05-03T02:56:16;95013.59;;;15.69;34.99
21011;BME280;10663;42.714;23.274;2023-05-03T02:57:47;95001.50;;;15.53;35.95
21011;BME280;10663;42.714;23.274;2023-05-03T02:59:22;95001.03;;;15.70;35.67
21011;BME280;10663;42.714;23.274;2023-05-03T03:00:52;95007.41;;;15.55;35.69
21011;BME280;10663;42.714;23.274;2023-05-03T03:02:23;95012.84;;;15.45;35.73
21011;BME280;10663;42.714;23.274;2023-05-03T03:03:55;95009.56;;;15.72;35.34
21011;BME280;10663;42.714;23.274;2023-05-03T03:05:26;95016.78;;;15.71;35.22
21011;BME280;10663;42.714;23.274;2023-05-03T03:06:56;95016.84;;;15.66;35.53
21011;BME280;10663;42.714;23.274;2023-05-03T03:08:28;95022.69;;;15.68;35.67
21011;BME280;10663;42.714;23.274;2023-05-03T03:10:03;95023.41;;;15.74;35.57
21011;BME280;10663;42.714;23.274;2023-05-03T03:11:35;95014.91;;;15.72;35.22
21011;BME280;10663;42.714;23.274;2023-05-03T03:13:06;95024.84;;;15.85;35.12
21011;BME280;10663;42.714;23.274;2023-05-03T03:14:41;95021.03;;;15.73;34.97
21011;BME280;10663;42.714;23.274;2023-05-03T03:16:15;95022.25;;;15.80;35.02
21011;BME280;10663;42.714;23.274;2023-05-03T03:17:46;95024.78;;;15.71;35.42
21011;BME280;10663;42.714;23.274;2023-05-03T03:19:17;95020.44;;;15.76;35.14
21011;BME280;10663;42.714;23.274;2023-05-03T03:20:48;95018.41;;;15.67;35.24
21011;BME280;10663;42.714;23.274;2023-05-03T03:22:19;95020.66;;;15.60;35.35
21011;BME280;10663;42.714;23.274;2023-05-03T03:23:51;95027.03;;;15.41;35.54
21011;BME280;10663;42.714;23.274;2023-05-03T03:25:22;95025.59;;;15.48;35.78
21011;BME280;10663;42.714;23.274;2023-05-03T03:26:53;95019.94;;;15.31;35.90
21011;BME280;10663;42.714;23.274;2023-05-03T03:28:24;95027.91;;;15.36;35.93
21011;BME280;10663;42.714;23.274;2023-05-03T03:29:55;95018.97;;;15.46;35.92
21011;BME280;10663;42.714;23.274;2023-05-03T03:31:26;95025.66;;;15.43;35.91
21011;BME280;10663;42.714;23.274;2023-05-03T03:32:59;95023.41;;;15.31;35.91
21011;BME280;10663;42.714;23.274;2023-05-03T03:34:38;95032.53;;;15.49;36.21
21011;BME280;10663;42.714;23.274;2023-05-03T03:36:09;95041.22;;;15.60;35.86
21011;BME280;10663;42.714;23.274;2023-05-03T03:37:43;95040.66;;;15.63;35.92
21011;BME280;10663;42.714;23.274;2023-05-03T03:39:15;95050.81;;;15.61;35.93
21011;BME280;10663;42.714;23.274;2023-05-03T03:40:47;95057.97;;;15.65;36.15
21011;BME280;10663;42.714;23.274;2023-05-03T03:42:18;95045.88;;;15.49;36.72
21011;BME280;10663;42.714;23.274;2023-05-03T03:43:50;95040.72;;;15.58;36.78
21011;BME280;10663;42.714;23.274;2023-05-03T03:45:23;95039.91;;;15.57;36.51
21011;BME280;10663;42.714;23.274;2023-05-03T03:46:54;95047.44;;;15.55;36.37
21011;BME280;10663;42.714;23.274;2023-05-03T03:48:26;95055.22;;;15.70;36.32
21011;BME280;10663;42.714;23.274;2023-05-03T03:50:00;95056.78;;;15.53;36.19
21011;BME280;10663;42.714;23.274;2023-05-03T03:51:33;95053.22;;;15.81;36.48
21011;BME280;10663;42.714;23.274;2023-05-03T03:53:04;95045.41;;;15.85;36.05
21011;BME280;10663;42.714;23.274;2023-05-03T03:54:36;95048.97;;;15.80;36.02
21011;BME280;10663;42.714;23.274;2023-05-03T03:56:07;95054.72;;;15.87;35.83
21011;BME280;10663;42.714;23.274;2023-05-03T03:57:38;95065.38;;;15.92;35.89
21011;BME280;10663;42.714;23.274;2023-05-03T03:59:09;95064.25;;;15.93;36.27
21011;BME280;10663;42.714;23.274;2023-05-03T04:00:40;95064.34;;;15.88;35.70
21011;BME280;10663;42.714;23.274;2023-05-03T04:02:17;95071.81;;;15.67;35.76
21011;BME280;10663;42.714;23.274;2023-05-03T04:03:48;95064.59;;;15.68;35.98
21011;BME280;10663;42.714;23.274;2023-05-03T04:05:19;95068.31;;;15.72;35.91
21011;BME280;10663;42.714;23.274;2023-05-03T04:06:50;95068.25;;;15.53;36.17
21011;BME280;10663;42.714;23.274;2023-05-03T04:08:21;95060.97;;;15.59;36.25
21011;BME280;10663;42.714;23.274;2023-05-03T04:09:53;95074.94;;;15.56;35.96
21011;BME280;10663;42.714;23.274;2023-05-03T04:11:24;95072.97;;;15.38;36.77
21011;BME280;10663;42.714;23.274;2023-05-03T04:12:59;95068.38;;;15.43;36.96
21011;BME280;10663;42.714;23.274;2023-05-03T04:14:32;95080.34;;;15.46;36.22
21011;BME280;10663;42.714;23.274;2023-05-03T04:16:07;95066.41;;;15.49;36.27
21011;BME280;10663;42.714;23.274;2023-05-03T04:17:39;95087.91;;;15.62;35.95
21011;BME280;10663;42.714;23.274;2023-05-03T04:19:13;95077.59;;;15.56;36.00
21011;BME280;10663;42.714;23.274;2023-05-03T04:20:45;95068.94;;;15.40;36.58
21011;BME280;10663;42.714;23.274;2023-05-03T04:22:18;95064.84;;;15.48;36.06
21011;BME280;10663;42.714;23.274;2023-05-03T04:23:49;95074.06;;;15.60;35.82
21011;BME280;10663;42.714;23.274;2023-05-03T04:25:22;95078.69;;;15.50;35.97
21011;BME280;10663;42.714;23.274;2023-05-03T04:27:02;95081.34;;;15.50;36.21
21011;BME280;10663;42.714;23.274;2023-05-03T04:28:34;95080.34;;;15.46;36.25
21011;BME280;10663;42.714;23.274;2023-05-03T04:30:06;95099.38;;;15.39;36.10
21011;BME280;10663;42.714;23.274;2023-05-03T04:31:37;95094.41;;;15.51;36.32
21011;BME280;10663;42.714;23.274;2023-05-03T04:33:09;95109.59;;;15.32;36.29
21011;BME280;10663;42.714;23.274;2023-05-03T04:34:41;95121.97;;;15.23;36.60
21011;BME280;10663;42.714;23.274;2023-05-03T04:36:12;95118.13;;;15.34;36.48
21011;BME280;10663;42.714;23.274;2023-05-03T04:37:48;95112.38;;;15.46;36.28
21011;BME280;10663;42.714;23.274;2023-05-03T04:39:24;95120.50;;;15.59;36.17
21011;BME280;10663;42.714;23.274;2023-05-03T04:40:57;95131.16;;;15.64;36.29
21011;BME280;10663;42.714;23.274;2023-05-03T04:42:28;95136.06;;;15.52;36.53
21011;BME280;10663;42.714;23.274;2023-05-03T04:43:59;95136.22;;;15.37;37.10
21011;BME280;10663;42.714;23.274;2023-05-03T04:45:31;95125.50;;;15.66;36.38
21011;BME280;10663;42.714;23.274;2023-05-03T04:47:02;95138.66;;;15.10;37.48
21011;BME280;10663;42.714;23.274;2023-05-03T04:48:33;95131.09;;;15.41;36.82
21011;BME280;10663;42.714;23.274;2023-05-03T04:50:07;95142.19;;;15.53;37.40
21011;BME280;10663;42.714;23.274;2023-05-03T04:51:38;95142.31;;;15.66;36.60
21011;BME280;10663;42.714;23.274;2023-05-03T04:53:09;95146.09;;;15.65;36.71
21011;BME280;10663;42.714;23.274;2023-05-03T04:54:45;95137.81;;;15.86;37.01
21011;BME280;10663;42.714;23.274;2023-05-03T04:56:17;95127.16;;;15.62;37.06
21011;BME280;10663;42.714;23.274;2023-05-03T04:57:50;95146.41;;;15.83;36.02
21011;BME280;10663;42.714;23.274;2023-05-03T04:59:21;95132.34;;;15.48;36.98
21011;BME280;10663;42.714;23.274;2023-05-03T05:00:52;95138.63;;;15.39;36.97
21011;BME280;10663;42.714;23.274;2023-05-03T05:02:29;95135.56;;;15.21;37.33
21011;BME280;10663;42.714;23.274;2023-05-03T05:04:01;95129.41;;;15.26;37.28
21011;BME280;10663;42.714;23.274;2023-05-03T05:05:38;95145.06;;;15.09;38.05
21011;BME280;10663;42.714;23.274;2023-05-03T05:07:12;95142.47;;;15.27;37.87
21011;BME280;10663;42.714;23.274;2023-05-03T05:08:45;95156.09;;;15.26;37.84
21011;BME280;10663;42.714;23.274;2023-05-03T05:10:18;95147.97;;;15.36;37.63
21011;BME280;10663;42.714;23.274;2023-05-03T05:11:49;95158.06;;;15.15;37.70
21011;BME280;10663;42.714;23.274;2023-05-03T05:13:20;95155.81;;;15.27;37.50
21011;BME280;10663;42.714;23.274;2023-05-03T05:14:55;95148.97;;;15.45;37.27
21011;BME280;10663;42.714;23.274;2023-05-03T05:16:26;95151.50;;;15.31;37.78
21011;BME280;10663;42.714;23.274;2023-05-03T05:17:58;95156.63;;;15.52;37.86
21011;BME280;10663;42.714;23.274;2023-05-03T05:19:30;95161.69;;;15.24;38.82
21011;BME280;10663;42.714;23.274;2023-05-03T05:21:01;95160.63;;;15.54;38.79
21011;BME280;10663;42.714;23.274;2023-05-03T05:22:32;95161.78;;;15.43;39.24
21011;BME280;10663;42.714;23.274;2023-05-03T05:24:04;95160.97;;;15.19;40.25
21011;BME280;10663;42.714;23.274;2023-05-03T05:25:35;95167.69;;;15.40;40.26
21011;BME280;10663;42.714;23.274;2023-05-03T05:27:07;95173.06;;;15.11;41.26
21011;BME280;10663;42.714;23.274;2023-05-03T05:28:38;95171.59;;;15.24;41.20
21011;BME280;10663;42.714;23.274;2023-05-03T05:30:10;95173.44;;;15.23;41.50
21011;BME280;10663;42.714;23.274;2023-05-03T05:31:44;95168.22;;;15.13;41.99
21011;BME280;10663;42.714;23.274;2023-05-03T05:33:15;95169.19;;;15.22;41.92
21011;BME280;10663;42.714;23.274;2023-05-03T05:34:46;95178.06;;;15.18;41.68
21011;BME280;10663;42.714;23.274;2023-05-03T05:36:22;95174.06;;;15.44;41.32
21011;BME280;10663;42.714;23.274;2023-05-03T05:37:54;95175.19;;;15.38;41.12
21011;BME280;10663;42.714;23.274;2023-05-03T05:39:26;95175.91;;;15.73;41.03
21011;BME280;10663;42.714;23.274;2023-05-03T05:40:57;95171.16;;;15.88;40.80
21011;BME280;10663;42.714;23.274;2023-05-03T05:42:28;95172.91;;;15.98;40.86
21011;BME280;10663;42.714;23.274;2023-05-03T05:43:59;95179.00;;;16.03;40.17
21011;BME280;10663;42.714;23.274;2023-05-03T05:45:31;95168.56;;;16.26;39.77
21011;BME280;10663;42.714;23.274;2023-05-03T05:47:05;95174.59;;;16.31;39.44
21011;BME280;10663;42.714;23.274;2023-05-03T05:48:38;95169.31;;;16.07;39.83
21011;BME280;10663;42.714;23.274;2023-05-03T05:50:09;95177.50;;;16.35;38.87
21011;BME280;10663;42.714;23.274;2023-05-03T05:51:42;95176.34;;;16.22;38.76
21011;BME280;10663;42.714;23.274;2023-05-03T05:53:15;95169.91;;;16.42;38.46
21011;BME280;10663;42.714;23.274;2023-05-03T05:54:53;95177.66;;;16.25;39.11
21011;BME280;10663;42.714;23.274;2023-05-03T05:56:25;95171.88;;;16.36;38.15
21011;BME280;10663;42.714;23.274;2023-05-03T05:57:56;95166.97;;;16.62;38.00
21011;BME280;10663;42.714;23.274;2023-05-03T05:59:32;95176.31;;;16.65;37.39
21011;BME280;10663;42.714;23.274;2023-05-03T06:01:03;95181.78;;;16.55;37.97
21011;BME280;10663;42.714;23.274;2023-05-03T06:02:38;95170.72;;;16.24;38.63
21011;BME280;10663;42.714;23.274;2023-05-03T06:04:09;95176.72;;;16.34;38.13
21011;BME280;10663;42.714;23.274;2023-05-03T06:05:41;95177.13;;;16.04;38.65
21011;BME280;10663;42.714;23.274;2023-05-03T06:07:14;95179.59;;;16.19;38.55
21011;BME280;10663;42.714;23.274;2023-05-03T06:08:46;95175.38;;;16.13;38.95
21011;BME280;10663;42.714;23.274;2023-05-03T06:10:21;95176.53;;;16.07;39.11
21011;BME280;10663;42.714;23.274;2023-05-03T06:11:55;95177.22;;;15.94;40.83
21011;BME280;10663;42.714;23.274;2023-05-03T06:13:26;95168.78;;;16.29;39.11
21011;BME280;10663;42.714;23.274;2023-05-03T06:14:56;95170.44;;;16.63;38.35
21011;BME280;10663;42.714;23.274;2023-05-03T06:16:27;95175.53;;;16.40;38.79
21011;BME280;10663;42.714;23.274;2023-05-03T06:17:58;95176.84;;;16.05;39.12
21011;BME280;10663;42.714;23.274;2023-05-03T06:19:29;95171.88;;;15.94;39.90
21011;BME280;10663;42.714;23.274;2023-05-03T06:21:00;95166.09;;;16.11;39.57
21011;BME280;10663;42.714;23.274;2023-05-03T06:22:31;95171.63;;;15.95;39.82
21011;BME280;10663;42.714;23.274;2023-05-03T06:24:03;95170.03;;;16.13;39.57
21011;BME280;10663;42.714;23.274;2023-05-03T06:25:34;95165.34;;;16.05;39.60
21011;BME280;10663;42.714;23.274;2023-05-03T06:27:08;95170.41;;;16.06;39.78
21011;BME280;10663;42.714;23.274;2023-05-03T06:28:39;95172.13;;;15.97;40.10
21011;BME280;10663;42.714;23.274;2023-05-03T06:30:10;95167.03;;;16.20;39.59
21011;BME280;10663;42.714;23.274;2023-05-03T06:31:41;95166.44;;;16.41;39.26
21011;BME280;10663;42.714;23.274;2023-05-03T06:33:12;95161.75;;;16.90;38.55
21011;BME280;10663;42.714;23.274;2023-05-03T06:34:45;95160.19;;;16.70;39.49
21011;BME280;10663;42.714;23.274;2023-05-03T06:36:16;95160.03;;;16.80;39.71
21011;BME280;10663;42.714;23.274;2023-05-03T06:37:47;95156.41;;;17.03;38.79
21011;BME280;10663;42.714;23.274;2023-05-03T06:39:19;95162.91;;;17.16;38.27
21011;BME280;10663;42.714;23.274;2023-05-03T06:40:50;95155.50;;;17.27;38.13
21011;BME280;10663;42.714;23.274;2023-05-03T06:42:21;95149.06;;;17.55;37.50
21011;BME280;10663;42.714;23.274;2023-05-03T06:43:52;95147.47;;;17.27;38.34
21011;BME280;10663;42.714;23.274;2023-05-03T06:45:23;95143.31;;;17.34;37.68
21011;BME280;10663;42.714;23.274;2023-05-03T06:46:54;95149.59;;;17.57;37.69
21011;BME280;10663;42.714;23.274;2023-05-03T06:48:25;95143.63;;;17.46;37.15
21011;BME280;10663;42.714;23.274;2023-05-03T06:49:57;95134.06;;;17.40;37.16
21011;BME280;10663;42.714;23.274;2023-05-03T06:51:28;95138.53;;;17.58;37.13
21011;BME280;10663;42.714;23.274;2023-05-03T06:53:01;95137.56;;;17.54;37.21
21011;BME280;10663;42.714;23.274;2023-05-03T06:54:32;95136.28;;;17.52;37.39
21011;BME280;10663;42.714;23.274;2023-05-03T06:56:03;95135.00;;;17.77;36.85
21011;BME280;10663;42.714;23.274;2023-05-03T06:57:34;95129.16;;;17.75;36.58
21011;BME280;10663;42.714;23.274;2023-05-03T06:59:06;95126.16;;;17.90;36.52
21011;BME280;10663;42.714;23.274;2023-05-03T07:00:37;95123.50;;;17.76;36.43
21011;BME280;10663;42.714;23.274;2023-05-03T07:02:08;95125.50;;;17.84;35.69
21011;BME280;10663;42.714;23.274;2023-05-03T07:03:39;95125.00;;;17.69;36.28
21011;BME280;10663;42.714;23.274;2023-05-03T07:05:10;95130.53;;;17.45;37.15
21011;BME280;10663;42.714;23.274;2023-05-03T07:06:41;95131.72;;;17.93;36.05
21011;BME280;10663;42.714;23.274;2023-05-03T07:08:12;95125.09;;;17.64;36.34
21011;BME280;10663;42.714;23.274;2023-05-03T07:09:43;95122.13;;;17.65;36.52
21011;BME280;10663;42.714;23.274;2023-05-03T07:11:14;95117.03;;;17.77;35.90
21011;BME280;10663;42.714;23.274;2023-05-03T07:12:45;95118.16;;;17.63;36.21
21011;BME280;10663;42.714;23.274;2023-05-03T07:14:16;95126.28;;;17.71;36.53
21011;BME280;10663;42.714;23.274;2023-05-03T07:15:47;95129.53;;;17.95;36.05
21011;BME280;10663;42.714;23.274;2023-05-03T07:17:18;95134.50;;;17.88;36.30
21011;BME280;10663;42.714;23.274;2023-05-03T07:18:49;95131.41;;;17.95;36.20
21011;BME280;10663;42.714;23.274;2023-05-03T07:20:20;95137.97;;;18.03;35.59
21011;BME280;10663;42.714;23.274;2023-05-03T07:21:51;95133.03;;;17.82;35.77
21011;BME280;10663;42.714;23.274;2023-05-03T07:23:22;95125.31;;;18.17;35.69
21011;BME280;10663;42.714;23.274;2023-05-03T07:24:53;95121.00;;;17.93;35.81
21011;BME280;10663;42.714;23.274;2023-05-03T07:26:24;95108.44;;;18.16;35.34
21011;BME280;10663;42.714;23.274;2023-05-03T07:27:56;95116.75;;;18.28;35.38
21011;BME280;10663;42.714;23.274;2023-05-03T07:29:27;95122.28;;;18.32;35.10
21011;BME280;10663;42.714;23.274;2023-05-03T07:30:57;95122.78;;;18.12;35.85
21011;BME280;10663;42.714;23.274;2023-05-03T07:32:29;95127.06;;;18.35;35.09
21011;BME280;10663;42.714;23.274;2023-05-03T07:34:00;95135.38;;;18.47;35.40
21011;BME280;10663;42.714;23.274;2023-05-03T07:35:31;95139.44;;;18.45;35.33
21011;BME280;10663;42.714;23.274;2023-05-03T07:37:02;95137.53;;;18.59;35.26
21011;BME280;10663;42.714;23.274;2023-05-03T07:38:33;95133.41;;;18.75;35.22
21011;BME280;10663;42.714;23.274;2023-05-03T07:40:05;95138.25;;;19.18;34.46
21011;BME280;10663;42.714;23.274;2023-05-03T07:41:36;95120.84;;;19.15;34.74
21011;BME280;10663;42.714;23.274;2023-05-03T07:43:08;95119.31;;;18.92;35.06
21011;BME280;10663;42.714;23.274;2023-05-03T07:44:42;95119.47;;;18.95;35.46
21011;BME280;10663;42.714;23.274;2023-05-03T07:46:13;95127.72;;;18.99;35.14
21011;BME280;10663;42.714;23.274;2023-05-03T07:47:44;95122.41;;;19.08;35.20
21011;BME280;10663;42.714;23.274;2023-05-03T07:49:15;95117.59;;;19.58;34.34
21011;BME280;10663;42.714;23.274;2023-05-03T07:50:46;95127.50;;;19.49;34.37
21011;BME280;10663;42.714;23.274;2023-05-03T07:52:17;95131.19;;;19.30;34.82
21011;BME280;10663;42.714;23.274;2023-05-03T07:53:48;95132.09;;;19.17;35.08
21011;BME280;10663;42.714;23.274;2023-05-03T07:55:19;95127.22;;;19.19;35.20
21011;BME280;10663;42.714;23.274;2023-05-03T07:56:50;95120.34;;;19.35;34.98
21011;BME280;10663;42.714;23.274;2023-05-03T07:58:20;95126.53;;;19.44;34.29
21011;BME280;10663;42.714;23.274;2023-05-03T07:59:51;95130.91;;;19.63;34.16
21011;BME280;10663;42.714;23.274;2023-05-03T08:01:23;95123.50;;;19.37;36.15
21011;BME280;10663;42.714;23.274;2023-05-03T08:02:54;95125.44;;;19.15;35.39
21011;BME280;10663;42.714;23.274;2023-05-03T08:04:25;95112.25;;;19.27;35.44
21011;BME280;10663;42.714;23.274;2023-05-03T08:05:56;95115.31;;;19.42;34.94
21011;BME280;10663;42.714;23.274;2023-05-03T08:07:27;95124.94;;;19.43;34.94
21011;BME280;10663;42.714;23.274;2023-05-03T08:08:58;95127.16;;;19.72;34.58
21011;BME280;10663;42.714;23.274;2023-05-03T08:10:29;95130.19;;;19.88;34.81
21011;BME280;10663;42.714;23.274;2023-05-03T08:12:03;95138.59;;;19.95;34.33
21011;BME280;10663;42.714;23.274;2023-05-03T08:13:34;95140.16;;;19.96;34.98